sensor_id;sensor_type;location;lat;lon;timestamp;P1;durP1;ratioP1;P2;durP2;ratioP2
74922;SDS011;64715;44.760;37.678;2023-01-15T00:00:07;20.80;;;7.35;;
74922;SDS011;64715;44.760;37.678;2023-01-15T00:01:19;19.67;;;7.28;;
74922;SDS011;64715;44.760;37.678;2023-01-15T00:02:30;19.50;;;7.53;;
74922;SDS011;64715;44.760;37.678;2023-01-15T00:03:32;21.40;;;8.07;;
74922;SDS011;64715;44.760;37.678;2023-01-15T00:04:33;21.07;;;7.97;;
74922;SDS011;64715;44.760;37.678;2023-01-15T00:05:34;19.02;;;7.70;;
74922;SDS011;64715;44.760;37.678;2023-01-15T00:06:37;22.98;;;7.70;;
74922;SDS011;64715;44.760;37.678;2023-01-15T00:07:40;20.52;;;8.07;;
74922;SDS011;64715;44.760;37.678;2023-01-15T00:08:41;21.23;;;7.63;;
74922;SDS011;64715;44.760;37.678;2023-01-15T00:09:43;21.17;;;8.10;;
74922;SDS011;64715;44.760;37.678;2023-01-15T00:10:44;17.63;;;7.20;;
74922;SDS011;64715;44.760;37.678;2023-01-15T00:11:44;25.20;;;8.27;;
74922;SDS011;64715;44.760;37.678;2023-01-15T00:12:45;21.87;;;8.20;;
74922;SDS011;64715;44.760;37.678;2023-01-15T00:13:47;20.05;;;7.68;;
74922;SDS011;64715;44.760;37.678;2023-01-15T00:14:48;23.95;;;8.38;;
74922;SDS011;64715;44.760;37.678;2023-01-15T00:15:49;19.13;;;8.00;;
74922;SDS011;64715;44.760;37.678;2023-01-15T00:16:50;19.85;;;8.23;;
74922;SDS011;64715;44.760;37.678;2023-01-15T00:17:52;20.80;;;8.07;;
74922;SDS011;64715;44.760;37.678;2023-01-15T00:18:54;21.10;;;7.80;;
74922;SDS011;64715;44.760;37.678;2023-01-15T00:19:56;24.67;;;8.37;;
74922;SDS011;64715;44.760;37.678;2023-01-15T00:20:58;19.15;;;7.88;;
74922;SDS011;64715;44.760;37.678;2023-01-15T00:22:00;21.80;;;8.60;;
74922;SDS011;64715;44.760;37.678;2023-01-15T00:23:01;21.05;;;8.75;;
74922;SDS011;64715;44.760;37.678;2023-01-15T00:24:02;20.08;;;7.72;;
74922;SDS011;64715;44.760;37.678;2023-01-15T00:25:22;21.90;;;8.05;;
74922;SDS011;64715;44.760;37.678;2023-01-15T00:26:41;22.27;;;8.30;;
74922;SDS011;64715;44.760;37.678;2023-01-15T00:28:01;21.25;;;8.00;;
74922;SDS011;64715;44.760;37.678;2023-01-15T00:29:02;33.73;;;11.63;;
74922;SDS011;64715;44.760;37.678;2023-01-15T00:30:05;40.35;;;13.50;;
74922;SDS011;64715;44.760;37.678;2023-01-15T00:31:12;37.45;;;14.13;;
74922;SDS011;64715;44.760;37.678;2023-01-15T00:32:13;40.60;;;15.65;;
74922;SDS011;64715;44.760;37.678;2023-01-15T00:33:14;47.08;;;15.73;;
74922;SDS011;64715;44.760;37.678;2023-01-15T00:34:15;39.10;;;15.13;;
74922;SDS011;64715;44.760;37.678;2023-01-15T00:35:19;39.20;;;15.20;;
74922;SDS011;64715;44.760;37.678;2023-01-15T00:36:22;39.83;;;14.93;;
74922;SDS011;64715;44.760;37.678;2023-01-15T00:37:25;43.08;;;15.02;;
74922;SDS011;64715;44.760;37.678;2023-01-15T00:38:26;39.70;;;13.97;;
74922;SDS011;64715;44.760;37.678;2023-01-15T00:39:27;40.38;;;15.02;;
74922;SDS011;64715;44.760;37.678;2023-01-15T00:40:28;46.25;;;15.88;;
74922;SDS011;64715;44.760;37.678;2023-01-15T00:41:29;37.85;;;14.70;;
74922;SDS011;64715;44.760;37.678;2023-01-15T00:42:30;40.78;;;14.95;;
74922;SDS011;64715;44.760;37.678;2023-01-15T00:43:31;40.22;;;15.25;;
74922;SDS011;64715;44.760;37.678;2023-01-15T00:44:32;41.78;;;14.68;;
74922;SDS011;64715;44.760;37.678;2023-01-15T00:45:33;37.88;;;14.50;;
74922;SDS011;64715;44.760;37.678;2023-01-15T00:46:34;41.78;;;14.90;;
74922;SDS011;64715;44.760;37.678;2023-01-15T00:47:40;45.90;;;15.48;;
74922;SDS011;64715;44.760;37.678;2023-01-15T00:48:43;41.67;;;15.38;;
74922;SDS011;64715;44.760;37.678;2023-01-15T00:49:44;39.20;;;15.32;;
74922;SDS011;64715;44.760;37.678;2023-01-15T00:50:45;42.45;;;15.27;;
74922;SDS011;64715;44.760;37.678;2023-01-15T00:51:46;41.23;;;15.33;;
74922;SDS011;64715;44.760;37.678;2023-01-15T00:52:49;38.28;;;14.98;;
74922;SDS011;64715;44.760;37.678;2023-01-15T00:53:50;47.67;;;15.85;;
74922;SDS011;64715;44.760;37.678;2023-01-15T00:54:51;40.30;;;14.98;;
74922;SDS011;64715;44.760;37.678;2023-01-15T00:55:53;39.92;;;14.40;;
74922;SDS011;64715;44.760;37.678;2023-01-15T00:56:54;45.10;;;15.82;;
74922;SDS011;64715;44.760;37.678;2023-01-15T00:57:55;43.53;;;14.45;;
74922;SDS011;64715;44.760;37.678;2023-01-15T00:58:56;41.10;;;15.17;;
74922;SDS011;64715;44.760;37.678;2023-01-15T00:59:57;42.15;;;15.45;;
74922;SDS011;64715;44.760;37.678;2023-01-15T01:00:59;42.67;;;14.75;;
74922;SDS011;64715;44.760;37.678;2023-01-15T01:02:02;39.17;;;15.30;;
74922;SDS011;64715;44.760;37.678;2023-01-15T01:03:03;41.17;;;14.60;;
74922;SDS011;64715;44.760;37.678;2023-01-15T01:04:04;43.35;;;15.18;;
74922;SDS011;64715;44.760;37.678;2023-01-15T01:05:06;41.53;;;15.35;;
74922;SDS011;64715;44.760;37.678;2023-01-15T01:06:07;41.08;;;15.48;;
74922;SDS011;64715;44.760;37.678;2023-01-15T01:07:09;40.53;;;15.80;;
74922;SDS011;64715;44.760;37.678;2023-01-15T01:08:10;43.58;;;14.77;;
74922;SDS011;64715;44.760;37.678;2023-01-15T01:09:13;39.03;;;13.75;;
74922;SDS011;64715;44.760;37.678;2023-01-15T01:10:15;37.22;;;13.90;;
74922;SDS011;64715;44.760;37.678;2023-01-15T01:11:18;42.63;;;14.95;;
74922;SDS011;64715;44.760;37.678;2023-01-15T01:12:20;36.85;;;14.98;;
74922;SDS011;64715;44.760;37.678;2023-01-15T01:13:22;38.08;;;14.77;;
74922;SDS011;64715;44.760;37.678;2023-01-15T01:14:23;41.38;;;14.70;;
74922;SDS011;64715;44.760;37.678;2023-01-15T01:15:24;40.88;;;14.88;;
74922;SDS011;64715;44.760;37.678;2023-01-15T01:16:27;39.28;;;14.98;;
74922;SDS011;64715;44.760;37.678;2023-01-15T01:17:31;42.17;;;14.93;;
74922;SDS011;64715;44.760;37.678;2023-01-15T01:18:33;41.25;;;15.23;;
74922;SDS011;64715;44.760;37.678;2023-01-15T01:19:34;40.08;;;14.85;;
74922;SDS011;64715;44.760;37.678;2023-01-15T01:20:37;38.65;;;15.05;;
74922;SDS011;64715;44.760;37.678;2023-01-15T01:21:39;38.40;;;14.48;;
74922;SDS011;64715;44.760;37.678;2023-01-15T01:22:41;37.38;;;14.70;;
74922;SDS011;64715;44.760;37.678;2023-01-15T01:23:43;42.88;;;14.95;;
74922;SDS011;64715;44.760;37.678;2023-01-15T01:24:44;46.83;;;14.97;;
74922;SDS011;64715;44.760;37.678;2023-01-15T01:25:45;37.90;;;14.23;;
74922;SDS011;64715;44.760;37.678;2023-01-15T01:26:46;39.65;;;14.40;;
74922;SDS011;64715;44.760;37.678;2023-01-15T01:27:48;38.72;;;14.23;;
74922;SDS011;64715;44.760;37.678;2023-01-15T01:28:50;37.80;;;13.70;;
74922;SDS011;64715;44.760;37.678;2023-01-15T01:29:51;40.25;;;14.50;;
74922;SDS011;64715;44.760;37.678;2023-01-15T01:30:52;41.60;;;14.90;;
74922;SDS011;64715;44.760;37.678;2023-01-15T01:31:53;36.20;;;14.60;;
74922;SDS011;64715;44.760;37.678;2023-01-15T01:32:54;36.63;;;13.73;;
74922;SDS011;64715;44.760;37.678;2023-01-15T01:33:57;42.08;;;14.32;;
74922;SDS011;64715;44.760;37.678;2023-01-15T01:34:59;40.30;;;14.55;;
74922;SDS011;64715;44.760;37.678;2023-01-15T01:36:00;37.17;;;14.73;;
74922;SDS011;64715;44.760;37.678;2023-01-15T01:37:01;38.33;;;14.35;;
74922;SDS011;64715;44.760;37.678;2023-01-15T01:38:02;41.00;;;14.98;;
74922;SDS011;64715;44.760;37.678;2023-01-15T01:39:04;42.72;;;14.90;;
74922;SDS011;64715;44.760;37.678;2023-01-15T01:40:06;46.07;;;14.43;;
74922;SDS011;64715;44.760;37.678;2023-01-15T01:41:07;40.33;;;14.25;;
74922;SDS011;64715;44.760;37.678;2023-01-15T01:42:12;40.08;;;14.35;;
74922;SDS011;64715;44.760;37.678;2023-01-15T01:43:24;35.38;;;13.68;;
74922;SDS011;64715;44.760;37.678;2023-01-15T01:45:38;39.83;;;12.85;;
74922;SDS011;64715;44.760;37.678;2023-01-15T01:46:39;37.47;;;13.52;;
74922;SDS011;64715;44.760;37.678;2023-01-15T01:47:39;39.05;;;13.85;;
74922;SDS011;64715;44.760;37.678;2023-01-15T01:48:41;39.43;;;13.20;;
74922;SDS011;64715;44.760;37.678;2023-01-15T01:49:42;38.85;;;13.85;;
74922;SDS011;64715;44.760;37.678;2023-01-15T01:50:45;37.80;;;13.73;;
74922;SDS011;64715;44.760;37.678;2023-01-15T01:51:52;36.83;;;13.88;;
74922;SDS011;64715;44.760;37.678;2023-01-15T01:53:03;35.20;;;13.38;;
74922;SDS011;64715;44.760;37.678;2023-01-15T01:54:07;37.20;;;12.57;;
74922;SDS011;64715;44.760;37.678;2023-01-15T01:55:11;37.90;;;13.75;;
74922;SDS011;64715;44.760;37.678;2023-01-15T01:56:16;39.15;;;13.15;;
74922;SDS011;64715;44.760;37.678;2023-01-15T01:57:18;40.90;;;14.23;;
74922;SDS011;64715;44.760;37.678;2023-01-15T01:58:21;37.75;;;13.75;;
74922;SDS011;64715;44.760;37.678;2023-01-15T01:59:26;35.47;;;12.87;;
74922;SDS011;64715;44.760;37.678;2023-01-15T02:00:28;36.97;;;13.52;;
74922;SDS011;64715;44.760;37.678;2023-01-15T02:01:31;34.40;;;12.70;;
74922;SDS011;64715;44.760;37.678;2023-01-15T02:02:32;33.00;;;12.07;;
74922;SDS011;64715;44.760;37.678;2023-01-15T02:03:35;36.90;;;12.90;;
74922;SDS011;64715;44.760;37.678;2023-01-15T02:04:38;34.70;;;13.82;;
74922;SDS011;64715;44.760;37.678;2023-01-15T02:05:42;35.97;;;12.75;;
74922;SDS011;64715;44.760;37.678;2023-01-15T02:06:48;32.83;;;11.77;;
74922;SDS011;64715;44.760;37.678;2023-01-15T02:07:52;35.17;;;12.95;;
74922;SDS011;64715;44.760;37.678;2023-01-15T02:08:54;29.90;;;12.25;;
74922;SDS011;64715;44.760;37.678;2023-01-15T02:09:55;32.70;;;12.10;;
74922;SDS011;64715;44.760;37.678;2023-01-15T02:10:57;33.33;;;12.18;;
74922;SDS011;64715;44.760;37.678;2023-01-15T02:12:24;33.20;;;12.07;;
74922;SDS011;64715;44.760;37.678;2023-01-15T02:13:39;32.28;;;11.88;;
74922;SDS011;64715;44.760;37.678;2023-01-15T02:14:49;32.90;;;12.55;;
74922;SDS011;64715;44.760;37.678;2023-01-15T02:16:00;33.35;;;12.07;;
74922;SDS011;64715;44.760;37.678;2023-01-15T02:17:14;32.15;;;11.48;;
74922;SDS011;64715;44.760;37.678;2023-01-15T02:18:30;31.02;;;11.57;;
74922;SDS011;64715;44.760;37.678;2023-01-15T02:20:52;30.92;;;10.57;;
74922;SDS011;64715;44.760;37.678;2023-01-15T02:22:09;32.73;;;11.43;;
74922;SDS011;64715;44.760;37.678;2023-01-15T02:23:44;31.38;;;10.98;;
74922;SDS011;64715;44.760;37.678;2023-01-15T02:27:52;33.30;;;11.05;;
74922;SDS011;64715;44.760;37.678;2023-01-15T02:28:57;32.50;;;11.65;;
74922;SDS011;64715;44.760;37.678;2023-01-15T02:31:31;34.08;;;11.27;;
74922;SDS011;64715;44.760;37.678;2023-01-15T02:32:40;35.33;;;12.82;;
74922;SDS011;64715;44.760;37.678;2023-01-15T02:33:57;38.45;;;13.43;;
74922;SDS011;64715;44.760;37.678;2023-01-15T02:35:22;36.23;;;12.87;;
74922;SDS011;64715;44.760;37.678;2023-01-15T02:36:31;40.13;;;14.18;;
74922;SDS011;64715;44.760;37.678;2023-01-15T02:37:36;36.75;;;12.63;;
74922;SDS011;64715;44.760;37.678;2023-01-15T02:38:44;36.13;;;13.52;;
74922;SDS011;64715;44.760;37.678;2023-01-15T02:39:48;37.05;;;13.38;;
74922;SDS011;64715;44.760;37.678;2023-01-15T02:40:52;35.25;;;13.55;;
74922;SDS011;64715;44.760;37.678;2023-01-15T02:41:57;39.10;;;13.95;;
74922;SDS011;64715;44.760;37.678;2023-01-15T02:43:06;40.42;;;13.25;;
74922;SDS011;64715;44.760;37.678;2023-01-15T02:44:09;40.72;;;13.60;;
74922;SDS011;64715;44.760;37.678;2023-01-15T02:45:18;41.67;;;14.35;;
74922;SDS011;64715;44.760;37.678;2023-01-15T02:46:29;37.87;;;13.53;;
74922;SDS011;64715;44.760;37.678;2023-01-15T02:47:37;37.28;;;13.35;;
74922;SDS011;64715;44.760;37.678;2023-01-15T02:48:40;36.63;;;12.85;;
74922;SDS011;64715;44.760;37.678;2023-01-15T02:49:44;34.03;;;13.18;;
74922;SDS011;64715;44.760;37.678;2023-01-15T02:50:54;40.80;;;13.18;;
74922;SDS011;64715;44.760;37.678;2023-01-15T02:52:04;38.22;;;13.40;;
74922;SDS011;64715;44.760;37.678;2023-01-15T02:53:08;43.92;;;14.05;;
74922;SDS011;64715;44.760;37.678;2023-01-15T02:54:14;40.53;;;13.35;;
74922;SDS011;64715;44.760;37.678;2023-01-15T02:55:23;40.78;;;14.05;;
74922;SDS011;64715;44.760;37.678;2023-01-15T02:56:29;37.97;;;13.43;;
74922;SDS011;64715;44.760;37.678;2023-01-15T02:57:36;38.07;;;13.17;;
74922;SDS011;64715;44.760;37.678;2023-01-15T02:58:39;38.25;;;13.00;;
74922;SDS011;64715;44.760;37.678;2023-01-15T02:59:44;44.13;;;13.63;;
74922;SDS011;64715;44.760;37.678;2023-01-15T03:00:48;40.13;;;13.32;;
74922;SDS011;64715;44.760;37.678;2023-01-15T03:01:56;38.78;;;13.43;;
74922;SDS011;64715;44.760;37.678;2023-01-15T03:03:02;36.72;;;12.68;;
74922;SDS011;64715;44.760;37.678;2023-01-15T03:04:36;36.50;;;12.80;;
74922;SDS011;64715;44.760;37.678;2023-01-15T03:05:52;38.70;;;12.70;;
74922;SDS011;64715;44.760;37.678;2023-01-15T03:07:17;35.20;;;13.40;;
74922;SDS011;64715;44.760;37.678;2023-01-15T03:08:26;35.65;;;12.00;;
74922;SDS011;64715;44.760;37.678;2023-01-15T03:09:28;36.63;;;12.97;;
74922;SDS011;64715;44.760;37.678;2023-01-15T03:12:04;35.05;;;11.70;;
74922;SDS011;64715;44.760;37.678;2023-01-15T03:13:10;37.30;;;12.50;;
74922;SDS011;64715;44.760;37.678;2023-01-15T03:14:29;34.17;;;12.88;;
74922;SDS011;64715;44.760;37.678;2023-01-15T03:17:16;37.15;;;13.30;;
74922;SDS011;64715;44.760;37.678;2023-01-15T03:18:23;46.53;;;14.70;;
74922;SDS011;64715;44.760;37.678;2023-01-15T03:19:30;42.60;;;13.15;;
74922;SDS011;64715;44.760;37.678;2023-01-15T03:20:45;39.97;;;13.63;;
74922;SDS011;64715;44.760;37.678;2023-01-15T03:22:01;35.47;;;13.03;;
74922;SDS011;64715;44.760;37.678;2023-01-15T03:23:11;40.47;;;12.98;;
74922;SDS011;64715;44.760;37.678;2023-01-15T03:24:48;36.30;;;11.70;;
74922;SDS011;64715;44.760;37.678;2023-01-15T03:25:48;33.20;;;12.32;;
74922;SDS011;64715;44.760;37.678;2023-01-15T03:26:51;34.67;;;11.52;;
74922;SDS011;64715;44.760;37.678;2023-01-15T03:27:55;36.15;;;12.50;;
74922;SDS011;64715;44.760;37.678;2023-01-15T03:29:02;38.42;;;12.05;;
74922;SDS011;64715;44.760;37.678;2023-01-15T03:30:07;33.38;;;11.88;;
74922;SDS011;64715;44.760;37.678;2023-01-15T03:31:13;39.35;;;12.13;;
74922;SDS011;64715;44.760;37.678;2023-01-15T03:32:15;40.35;;;13.38;;
74922;SDS011;64715;44.760;37.678;2023-01-15T03:33:19;40.77;;;12.87;;
74922;SDS011;64715;44.760;37.678;2023-01-15T03:34:20;36.83;;;12.23;;
74922;SDS011;64715;44.760;37.678;2023-01-15T03:35:38;35.70;;;11.73;;
74922;SDS011;64715;44.760;37.678;2023-01-15T03:37:10;37.17;;;12.07;;
74922;SDS011;64715;44.760;37.678;2023-01-15T03:38:18;38.00;;;12.60;;
74922;SDS011;64715;44.760;37.678;2023-01-15T03:39:22;37.05;;;12.30;;
74922;SDS011;64715;44.760;37.678;2023-01-15T03:40:30;40.28;;;12.38;;
74922;SDS011;64715;44.760;37.678;2023-01-15T03:43:05;39.50;;;12.30;;
74922;SDS011;64715;44.760;37.678;2023-01-15T03:45:39;36.10;;;11.10;;
74922;SDS011;64715;44.760;37.678;2023-01-15T03:48:12;34.03;;;12.15;;
74922;SDS011;64715;44.760;37.678;2023-01-15T03:50:00;37.35;;;12.25;;
74922;SDS011;64715;44.760;37.678;2023-01-15T03:50:47;41.15;;;12.75;;
74922;SDS011;64715;44.760;37.678;2023-01-15T03:53:12;37.40;;;12.00;;
74922;SDS011;64715;44.760;37.678;2023-01-15T03:54:32;35.28;;;10.93;;
74922;SDS011;64715;44.760;37.678;2023-01-15T03:55:44;38.30;;;12.65;;
74922;SDS011;64715;44.760;37.678;2023-01-15T03:58:41;42.73;;;12.70;;
74922;SDS011;64715;44.760;37.678;2023-01-15T03:59:50;37.55;;;12.10;;
74922;SDS011;64715;44.760;37.678;2023-01-15T04:00:56;43.10;;;12.75;;
74922;SDS011;64715;44.760;37.678;2023-01-15T04:02:01;38.58;;;13.00;;
74922;SDS011;64715;44.760;37.678;2023-01-15T04:03:05;36.08;;;13.07;;
74922;SDS011;64715;44.760;37.678;2023-01-15T04:04:09;41.35;;;14.13;;
74922;SDS011;64715;44.760;37.678;2023-01-15T04:05:12;37.38;;;12.23;;
74922;SDS011;64715;44.760;37.678;2023-01-15T04:06:14;40.28;;;12.85;;
74922;SDS011;64715;44.760;37.678;2023-01-15T04:07:15;37.15;;;12.57;;
74922;SDS011;64715;44.760;37.678;2023-01-15T04:08:17;39.13;;;12.50;;
74922;SDS011;64715;44.760;37.678;2023-01-15T04:09:21;35.57;;;12.60;;
74922;SDS011;64715;44.760;37.678;2023-01-15T04:10:26;39.53;;;12.98;;
74922;SDS011;64715;44.760;37.678;2023-01-15T04:11:29;37.45;;;12.32;;
74922;SDS011;64715;44.760;37.678;2023-01-15T04:12:36;36.95;;;12.10;;
74922;SDS011;64715;44.760;37.678;2023-01-15T04:13:41;39.17;;;12.82;;
74922;SDS011;64715;44.760;37.678;2023-01-15T04:14:53;37.50;;;12.13;;
74922;SDS011;64715;44.760;37.678;2023-01-15T04:15:55;37.47;;;12.82;;
74922;SDS011;64715;44.760;37.678;2023-01-15T04:16:58;36.38;;;12.65;;
74922;SDS011;64715;44.760;37.678;2023-01-15T04:17:59;39.05;;;12.55;;
74922;SDS011;64715;44.760;37.678;2023-01-15T04:19:03;37.17;;;12.10;;
74922;SDS011;64715;44.760;37.678;2023-01-15T04:20:07;37.90;;;11.77;;
74922;SDS011;64715;44.760;37.678;2023-01-15T04:21:09;35.88;;;12.15;;
74922;SDS011;64715;44.760;37.678;2023-01-15T04:22:10;33.95;;;13.05;;
74922;SDS011;64715;44.760;37.678;2023-01-15T04:23:11;34.95;;;12.77;;
74922;SDS011;64715;44.760;37.678;2023-01-15T04:24:12;35.10;;;12.15;;
74922;SDS011;64715;44.760;37.678;2023-01-15T04:25:15;32.25;;;11.55;;
74922;SDS011;64715;44.760;37.678;2023-01-15T04:26:15;31.73;;;11.80;;
74922;SDS011;64715;44.760;37.678;2023-01-15T04:27:17;38.13;;;11.73;;
74922;SDS011;64715;44.760;37.678;2023-01-15T04:28:18;36.42;;;11.90;;
74922;SDS011;64715;44.760;37.678;2023-01-15T04:29:19;39.72;;;13.27;;
74922;SDS011;64715;44.760;37.678;2023-01-15T04:30:20;35.67;;;12.05;;
74922;SDS011;64715;44.760;37.678;2023-01-15T04:31:23;37.40;;;12.70;;
74922;SDS011;64715;44.760;37.678;2023-01-15T04:32:24;39.85;;;12.40;;
74922;SDS011;64715;44.760;37.678;2023-01-15T04:33:25;31.85;;;11.73;;
74922;SDS011;64715;44.760;37.678;2023-01-15T04:34:27;38.50;;;12.52;;
74922;SDS011;64715;44.760;37.678;2023-01-15T04:35:28;37.27;;;12.87;;
74922;SDS011;64715;44.760;37.678;2023-01-15T04:36:29;42.20;;;12.90;;
74922;SDS011;64715;44.760;37.678;2023-01-15T04:37:35;37.17;;;12.98;;
74922;SDS011;64715;44.760;37.678;2023-01-15T04:38:36;36.75;;;13.40;;
74922;SDS011;64715;44.760;37.678;2023-01-15T04:39:37;42.22;;;13.48;;
74922;SDS011;64715;44.760;37.678;2023-01-15T04:40:39;40.92;;;14.32;;
74922;SDS011;64715;44.760;37.678;2023-01-15T04:41:58;41.22;;;14.25;;
74922;SDS011;64715;44.760;37.678;2023-01-15T04:43:19;35.85;;;12.77;;
74922;SDS011;64715;44.760;37.678;2023-01-15T04:44:55;41.27;;;13.93;;
74922;SDS011;64715;44.760;37.678;2023-01-15T04:45:56;44.00;;;13.90;;
74922;SDS011;64715;44.760;37.678;2023-01-15T04:46:57;38.67;;;13.35;;
74922;SDS011;64715;44.760;37.678;2023-01-15T04:47:59;40.45;;;13.63;;
74922;SDS011;64715;44.760;37.678;2023-01-15T04:49:00;40.83;;;13.05;;
74922;SDS011;64715;44.760;37.678;2023-01-15T04:50:02;43.63;;;13.25;;
74922;SDS011;64715;44.760;37.678;2023-01-15T04:51:03;41.38;;;12.73;;
74922;SDS011;64715;44.760;37.678;2023-01-15T04:52:07;41.38;;;12.45;;
74922;SDS011;64715;44.760;37.678;2023-01-15T04:53:07;42.13;;;12.88;;
74922;SDS011;64715;44.760;37.678;2023-01-15T04:54:09;39.17;;;13.37;;
74922;SDS011;64715;44.760;37.678;2023-01-15T04:55:12;36.65;;;12.25;;
74922;SDS011;64715;44.760;37.678;2023-01-15T04:56:13;37.60;;;12.57;;
74922;SDS011;64715;44.760;37.678;2023-01-15T04:57:13;41.60;;;13.10;;
74922;SDS011;64715;44.760;37.678;2023-01-15T04:58:15;36.10;;;12.75;;
74922;SDS011;64715;44.760;37.678;2023-01-15T04:59:16;41.25;;;13.82;;
74922;SDS011;64715;44.760;37.678;2023-01-15T05:00:19;38.90;;;12.80;;
74922;SDS011;64715;44.760;37.678;2023-01-15T05:01:20;36.28;;;12.52;;
74922;SDS011;64715;44.760;37.678;2023-01-15T05:02:21;40.38;;;13.02;;
74922;SDS011;64715;44.760;37.678;2023-01-15T05:03:22;35.58;;;12.90;;
74922;SDS011;64715;44.760;37.678;2023-01-15T05:04:23;35.10;;;12.50;;
74922;SDS011;64715;44.760;37.678;2023-01-15T05:05:24;36.20;;;13.27;;
74922;SDS011;64715;44.760;37.678;2023-01-15T05:06:25;37.30;;;13.13;;
74922;SDS011;64715;44.760;37.678;2023-01-15T05:07:27;39.10;;;13.15;;
74922;SDS011;64715;44.760;37.678;2023-01-15T05:08:28;38.67;;;12.13;;
74922;SDS011;64715;44.760;37.678;2023-01-15T05:09:29;37.28;;;12.90;;
74922;SDS011;64715;44.760;37.678;2023-01-15T05:10:32;37.83;;;12.20;;
74922;SDS011;64715;44.760;37.678;2023-01-15T05:11:34;38.88;;;12.43;;
74922;SDS011;64715;44.760;37.678;2023-01-15T05:12:36;39.55;;;12.70;;
74922;SDS011;64715;44.760;37.678;2023-01-15T05:13:39;37.53;;;12.93;;
74922;SDS011;64715;44.760;37.678;2023-01-15T05:14:40;38.72;;;12.77;;
74922;SDS011;64715;44.760;37.678;2023-01-15T05:15:40;39.43;;;13.50;;
74922;SDS011;64715;44.760;37.678;2023-01-15T05:16:43;43.03;;;12.82;;
74922;SDS011;64715;44.760;37.678;2023-01-15T05:17:44;37.35;;;13.07;;
74922;SDS011;64715;44.760;37.678;2023-01-15T05:18:45;37.53;;;12.80;;
74922;SDS011;64715;44.760;37.678;2023-01-15T05:19:47;36.25;;;12.90;;
74922;SDS011;64715;44.760;37.678;2023-01-15T05:20:48;39.95;;;13.32;;
74922;SDS011;64715;44.760;37.678;2023-01-15T05:21:50;37.20;;;12.65;;
74922;SDS011;64715;44.760;37.678;2023-01-15T05:22:51;42.27;;;12.93;;
74922;SDS011;64715;44.760;37.678;2023-01-15T05:23:53;44.75;;;13.20;;
74922;SDS011;64715;44.760;37.678;2023-01-15T05:24:55;40.95;;;13.20;;
74922;SDS011;64715;44.760;37.678;2023-01-15T05:25:56;39.25;;;12.80;;
74922;SDS011;64715;44.760;37.678;2023-01-15T05:26:57;35.85;;;13.27;;
74922;SDS011;64715;44.760;37.678;2023-01-15T05:27:58;34.47;;;12.48;;
74922;SDS011;64715;44.760;37.678;2023-01-15T05:29:00;37.92;;;13.20;;
74922;SDS011;64715;44.760;37.678;2023-01-15T05:30:01;35.00;;;13.15;;
74922;SDS011;64715;44.760;37.678;2023-01-15T05:31:10;40.00;;;13.02;;
74922;SDS011;64715;44.760;37.678;2023-01-15T05:32:13;36.77;;;11.53;;
74922;SDS011;64715;44.760;37.678;2023-01-15T05:33:14;37.00;;;11.55;;
74922;SDS011;64715;44.760;37.678;2023-01-15T05:34:15;36.45;;;11.82;;
74922;SDS011;64715;44.760;37.678;2023-01-15T05:35:17;37.63;;;12.15;;
74922;SDS011;64715;44.760;37.678;2023-01-15T05:36:22;34.03;;;11.40;;
74922;SDS011;64715;44.760;37.678;2023-01-15T05:37:25;37.20;;;12.30;;
74922;SDS011;64715;44.760;37.678;2023-01-15T05:38:29;34.30;;;11.98;;
74922;SDS011;64715;44.760;37.678;2023-01-15T05:39:30;36.58;;;11.82;;
74922;SDS011;64715;44.760;37.678;2023-01-15T05:40:31;37.20;;;11.67;;
74922;SDS011;64715;44.760;37.678;2023-01-15T05:41:34;34.25;;;11.15;;
74922;SDS011;64715;44.760;37.678;2023-01-15T05:42:50;36.15;;;11.23;;
74922;SDS011;64715;44.760;37.678;2023-01-15T05:43:53;36.53;;;11.93;;
74922;SDS011;64715;44.760;37.678;2023-01-15T05:44:55;35.10;;;12.70;;
74922;SDS011;64715;44.760;37.678;2023-01-15T05:46:00;33.10;;;12.13;;
74922;SDS011;64715;44.760;37.678;2023-01-15T05:47:02;33.30;;;12.57;;
74922;SDS011;64715;44.760;37.678;2023-01-15T05:48:05;34.10;;;11.33;;
74922;SDS011;64715;44.760;37.678;2023-01-15T05:49:07;36.92;;;12.30;;
74922;SDS011;64715;44.760;37.678;2023-01-15T05:50:14;38.38;;;12.98;;
74922;SDS011;64715;44.760;37.678;2023-01-15T05:51:16;34.22;;;13.30;;
74922;SDS011;64715;44.760;37.678;2023-01-15T05:52:17;36.15;;;13.63;;
74922;SDS011;64715;44.760;37.678;2023-01-15T05:53:18;43.28;;;13.27;;
74922;SDS011;64715;44.760;37.678;2023-01-15T05:54:20;34.95;;;13.63;;
74922;SDS011;64715;44.760;37.678;2023-01-15T05:55:26;36.47;;;12.95;;
74922;SDS011;64715;44.760;37.678;2023-01-15T05:56:27;49.13;;;17.00;;
74922;SDS011;64715;44.760;37.678;2023-01-15T05:57:28;46.22;;;15.63;;
74922;SDS011;64715;44.760;37.678;2023-01-15T05:58:29;39.42;;;14.98;;
74922;SDS011;64715;44.760;37.678;2023-01-15T05:59:31;36.08;;;14.32;;
74922;SDS011;64715;44.760;37.678;2023-01-15T06:00:33;39.90;;;12.75;;
74922;SDS011;64715;44.760;37.678;2023-01-15T06:01:34;32.88;;;11.68;;
74922;SDS011;64715;44.760;37.678;2023-01-15T06:02:35;39.75;;;12.50;;
74922;SDS011;64715;44.760;37.678;2023-01-15T06:03:36;34.00;;;11.77;;
74922;SDS011;64715;44.760;37.678;2023-01-15T06:04:37;36.47;;;12.27;;
74922;SDS011;64715;44.760;37.678;2023-01-15T06:05:38;31.55;;;11.02;;
74922;SDS011;64715;44.760;37.678;2023-01-15T06:06:39;31.50;;;10.60;;
74922;SDS011;64715;44.760;37.678;2023-01-15T06:07:41;29.77;;;10.88;;
74922;SDS011;64715;44.760;37.678;2023-01-15T06:08:42;31.05;;;10.75;;
74922;SDS011;64715;44.760;37.678;2023-01-15T06:09:43;28.35;;;9.93;;
74922;SDS011;64715;44.760;37.678;2023-01-15T06:10:45;33.55;;;11.32;;
74922;SDS011;64715;44.760;37.678;2023-01-15T06:11:46;27.67;;;10.13;;
74922;SDS011;64715;44.760;37.678;2023-01-15T06:12:47;25.48;;;9.45;;
74922;SDS011;64715;44.760;37.678;2023-01-15T06:13:48;31.40;;;11.18;;
74922;SDS011;64715;44.760;37.678;2023-01-15T06:14:49;30.55;;;10.43;;
74922;SDS011;64715;44.760;37.678;2023-01-15T06:15:50;31.95;;;11.02;;
74922;SDS011;64715;44.760;37.678;2023-01-15T06:16:51;30.95;;;10.13;;
74922;SDS011;64715;44.760;37.678;2023-01-15T06:17:52;31.48;;;11.20;;
74922;SDS011;64715;44.760;37.678;2023-01-15T06:18:53;27.97;;;9.67;;
74922;SDS011;64715;44.760;37.678;2023-01-15T06:19:54;35.50;;;11.40;;
74922;SDS011;64715;44.760;37.678;2023-01-15T06:20:55;33.50;;;11.15;;
74922;SDS011;64715;44.760;37.678;2023-01-15T06:21:56;32.47;;;11.65;;
74922;SDS011;64715;44.760;37.678;2023-01-15T06:22:57;33.30;;;11.10;;
74922;SDS011;64715;44.760;37.678;2023-01-15T06:23:58;34.28;;;11.07;;
74922;SDS011;64715;44.760;37.678;2023-01-15T06:25:00;37.40;;;11.50;;
74922;SDS011;64715;44.760;37.678;2023-01-15T06:26:02;34.20;;;11.38;;
74922;SDS011;64715;44.760;37.678;2023-01-15T06:27:04;35.22;;;11.20;;
74922;SDS011;64715;44.760;37.678;2023-01-15T06:28:06;30.02;;;11.00;;
74922;SDS011;64715;44.760;37.678;2023-01-15T06:29:07;33.65;;;10.70;;